createdAt,value
2016-06-14T00:00:13.178Z,88.13
2016-06-14T00:01:13.166Z,87.41
2016-06-14T00:02:13.169Z,87.37
2016-06-14T00:03:13.015Z,87.56
2016-06-14T00:04:13.160Z,87.56
2016-06-14T00:05:13.193Z,88.23
2016-06-14T00:06:13.166Z,87.47
2016-06-14T00:07:13.184Z,87.56
2016-06-14T00:08:13.187Z,87.66
2016-06-14T00:09:13.206Z,87.66
2016-06-14T00:10:13.178Z,87.47
2016-06-14T00:11:13.181Z,87.56
2016-06-14T00:12:13.185Z,87.47
2016-06-14T00:13:13.171Z,88.43
2016-06-14T00:14:13.268Z,87.27
2016-06-14T00:15:13.194Z,87.7
2016-06-14T00:16:13.196Z,87.8
2016-06-14T00:17:13.184Z,87.85
2016-06-14T00:18:13.203Z,87.85
2016-06-14T00:19:13.206Z,88.13
2016-06-14T00:20:13.209Z,88.28
2016-06-14T00:21:13.180Z,88.13
2016-06-14T00:22:13.199Z,88.23
2016-06-14T00:23:13.202Z,88.81
2016-06-14T00:24:13.205Z,88.13
2016-06-14T00:25:13.208Z,88.43
2016-06-14T00:26:13.211Z,88.43
2016-06-14T00:27:13.214Z,88.23
2016-06-14T00:28:13.217Z,88.43
2016-06-14T00:29:13.784Z,88.33
2016-06-14T00:30:14.161Z,88.62
2016-06-14T00:31:13.210Z,88.52
2016-06-14T00:32:13.199Z,87.95
2016-06-14T00:33:13.202Z,88.52
2016-06-14T00:34:13.219Z,88.52
2016-06-14T00:35:13.239Z,88.04
2016-06-14T00:36:13.226Z,88.33
2016-06-14T00:37:13.214Z,88.81
2016-06-14T00:38:13.232Z,88.81
2016-06-14T00:39:13.235Z,88.9
2016-06-14T00:40:13.239Z,88.33
2016-06-14T00:41:13.241Z,88.33
2016-06-14T00:42:13.244Z,88.62
2016-06-14T00:43:13.248Z,88.52
2016-06-14T00:44:13.251Z,88.52
2016-06-14T00:45:13.582Z,88.33
2016-06-14T00:46:13.242Z,88.13
2016-06-14T00:47:13.244Z,88.62
2016-06-14T00:48:13.263Z,88.23
2016-06-14T00:49:13.235Z,88.43
2016-06-14T00:50:13.254Z,88.43
2016-06-14T00:51:13.241Z,88.71
2016-06-14T00:52:13.244Z,88.43
2016-06-14T00:53:13.247Z,88.62
2016-06-14T00:54:13.251Z,88.71
2016-06-14T00:55:13.253Z,88.9
2016-06-14T00:56:13.288Z,88.52
2016-06-14T00:57:13.276Z,89.09
2016-06-14T00:58:13.262Z,89.19
2016-06-14T00:59:13.876Z,89.09
2016-06-14T01:00:13.269Z,89.29
2016-06-14T01:01:13.257Z,88.43
2016-06-14T01:02:13.260Z,88.43
2016-06-14T01:03:13.278Z,89.38
2016-06-14T01:04:13.125Z,88.71
2016-06-14T01:05:13.270Z,89.19
2016-06-14T01:06:13.272Z,88.81
2016-06-14T01:07:13.260Z,89.38
2016-06-14T01:08:13.278Z,89.29
2016-06-14T01:09:13.281Z,89.95
2016-06-14T01:10:13.285Z,89.86
2016-06-14T01:11:13.272Z,90.05
2016-06-14T01:12:13.274Z,90.05
2016-06-14T01:13:13.278Z,89.67
2016-06-14T01:14:13.281Z,90.05
2016-06-14T01:15:13.300Z,90.15
2016-06-14T01:16:13.286Z,91.01
2016-06-14T01:17:13.274Z,90.91
2016-06-14T01:18:13.294Z,90.53
2016-06-14T01:19:13.280Z,90.53
2016-06-14T01:20:13.283Z,91.49
2016-06-14T01:21:13.302Z,91.49
2016-06-14T01:22:13.290Z,91.77
2016-06-14T01:23:13.308Z,91.58
2016-06-14T01:24:13.327Z,91.58
2016-06-14T01:25:13.299Z,91.68
2016-06-14T01:26:13.302Z,91.87
2016-06-14T01:27:13.321Z,91.44
2016-06-14T01:28:13.324Z,91.97
2016-06-14T01:29:13.311Z,92.35
2016-06-14T01:30:13.361Z,92.16
2016-06-14T01:31:13.349Z,91.83
2016-06-14T01:32:13.305Z,92.4
2016-06-14T01:33:13.308Z,92.21
2016-06-14T01:34:13.326Z,91.73
2016-06-14T01:35:13.329Z,92.11
2016-06-14T01:36:13.333Z,92.02
2016-06-14T01:37:13.320Z,92.4
2016-06-14T01:38:13.307Z,92.21
2016-06-14T01:39:13.342Z,91.73
2016-06-14T01:40:13.314Z,91.83
2016-06-14T01:41:13.175Z,91.63
2016-06-14T01:42:13.336Z,91.73
2016-06-14T01:43:13.339Z,91.35
2016-06-14T01:44:13.326Z,91.49
2016-06-14T01:45:13.642Z,91.53
2016-06-14T01:46:13.332Z,91.68
2016-06-14T01:47:13.320Z,91.77
2016-06-14T01:48:13.354Z,91.39
2016-06-14T01:49:13.357Z,91.68
2016-06-14T01:50:13.344Z,91.97
2016-06-14T01:51:13.348Z,91.39
2016-06-14T01:52:13.366Z,91.58
2016-06-14T01:53:13.338Z,91.77
2016-06-14T01:54:13.356Z,91.77
2016-06-14T01:55:13.360Z,92.25
2016-06-14T01:56:13.363Z,92.25
2016-06-14T01:57:13.366Z,92.35
2016-06-14T01:58:13.338Z,91.97
2016-06-14T01:59:13.356Z,92.35
2016-06-14T02:00:14.281Z,92.54
2016-06-14T02:01:13.362Z,91.97
2016-06-14T02:02:13.365Z,92.16
2016-06-14T02:03:13.384Z,92.44
2016-06-14T02:04:13.357Z,92.63
2016-06-14T02:05:13.359Z,91.87
2016-06-14T02:06:13.363Z,92.44
2016-06-14T02:07:13.366Z,91.77
2016-06-14T02:08:13.384Z,92.25
2016-06-14T02:09:13.372Z,92.25
2016-06-14T02:10:13.375Z,91.77
2016-06-14T02:11:13.222Z,91.87
2016-06-14T02:12:13.412Z,91.39
2016-06-14T02:13:13.399Z,91.77
2016-06-14T02:14:13.372Z,91.39
2016-06-14T02:15:13.905Z,91.39
2016-06-14T02:16:13.377Z,92.35
2016-06-14T02:17:13.411Z,92.25
2016-06-14T02:18:13.400Z,92.35
2016-06-14T02:19:13.386Z,91.97
2016-06-14T02:20:13.374Z,91.68
2016-06-14T02:21:13.393Z,91.68
2016-06-14T02:22:13.411Z,91.39
2016-06-14T02:23:13.399Z,91.3
2016-06-14T02:24:13.402Z,91.39
2016-06-14T02:25:13.390Z,91.68
2016-06-14T02:26:13.408Z,91.87
2016-06-14T02:27:13.411Z,91.77
2016-06-14T02:28:13.414Z,91.58
2016-06-14T02:29:13.417Z,91.68
2016-06-14T02:30:13.451Z,91.97
2016-06-14T02:31:13.423Z,91.58
2016-06-14T02:32:13.411Z,91.77
2016-06-14T02:33:13.414Z,91.97
2016-06-14T02:34:13.418Z,91.3
2016-06-14T02:35:13.483Z,91.39
2016-06-14T02:36:13.501Z,91.3
2016-06-14T02:37:13.427Z,91.77
2016-06-14T02:38:13.430Z,91.49
2016-06-14T02:39:13.292Z,91.68
2016-06-14T02:40:13.436Z,91.77
2016-06-14T02:41:13.423Z,91.58
2016-06-14T02:42:13.458Z,91.58
2016-06-14T02:43:13.460Z,91.58
2016-06-14T02:44:13.464Z,92.35
2016-06-14T02:45:13.467Z,92.44
2016-06-14T02:46:13.454Z,92.35
2016-06-14T02:47:13.458Z,92.16
2016-06-14T02:48:13.445Z,92.54
2016-06-14T02:49:13.432Z,92.35
2016-06-14T02:50:13.467Z,92.35
2016-06-14T02:51:13.438Z,92.73
2016-06-14T02:52:13.457Z,92.92
2016-06-14T02:53:13.444Z,92.06
2016-06-14T02:54:13.510Z,92.16
2016-06-14T02:55:13.560Z,92.35
2016-06-14T02:56:13.470Z,92.44
2016-06-14T02:57:13.456Z,92.44
2016-06-14T02:58:13.303Z,92.44
2016-06-14T02:59:13.463Z,92.16
2016-06-14T03:00:13.903Z,92.25
2016-06-14T03:01:13.485Z,92.25
2016-06-14T03:02:13.472Z,91.87
2016-06-14T03:03:13.522Z,92.16
2016-06-14T03:04:13.463Z,91.68
2016-06-14T03:05:13.466Z,91.77
2016-06-14T03:06:13.484Z,91.39
2016-06-14T03:07:13.488Z,91.39
2016-06-14T03:08:13.475Z,91.77
2016-06-14T03:09:13.478Z,91.49
2016-06-14T03:10:13.481Z,91.39
2016-06-14T03:11:13.468Z,91.68
2016-06-14T03:12:13.488Z,91.39
2016-06-14T03:13:13.506Z,91.11
2016-06-14T03:14:13.493Z,91.77
2016-06-14T03:15:13.496Z,91.39
2016-06-14T03:16:13.515Z,91.3
2016-06-14T03:17:13.503Z,91.11
2016-06-14T03:18:13.521Z,90.91
2016-06-14T03:19:13.509Z,90.63
2016-06-14T03:20:13.496Z,91.3
2016-06-14T03:21:13.546Z,90.72
2016-06-14T03:22:13.611Z,90.72
2016-06-14T03:23:13.505Z,91.01
2016-06-14T03:24:13.509Z,90.72
2016-06-14T03:25:13.511Z,90.15
2016-06-14T03:26:13.514Z,90.15
2016-06-14T03:27:13.534Z,90.34
2016-06-14T03:28:13.521Z,90.53
2016-06-14T03:29:13.523Z,90.34
2016-06-14T03:30:13.371Z,90.44
2016-06-14T03:31:13.513Z,89.86
2016-06-14T03:32:13.517Z,90.05
2016-06-14T03:33:13.536Z,89.86
2016-06-14T03:34:13.539Z,89.48
2016-06-14T03:35:13.542Z,89.29
2016-06-14T03:36:13.529Z,89.38
2016-06-14T03:37:13.532Z,89.19
2016-06-14T03:38:13.536Z,89.19
2016-06-14T03:39:13.539Z,88.71
2016-06-14T03:40:13.542Z,88.81
2016-06-14T03:41:13.544Z,88.33
2016-06-14T03:42:13.532Z,88.71
2016-06-14T03:43:13.551Z,89.29
2016-06-14T03:44:13.554Z,88.81
2016-06-14T03:45:14.089Z,88.81
2016-06-14T03:46:13.545Z,88.81
2016-06-14T03:47:13.563Z,89.38
2016-06-14T03:48:13.551Z,89.09
2016-06-14T03:49:13.554Z,89.19
2016-06-14T03:50:13.572Z,88.52
2016-06-14T03:51:13.560Z,88.71
2016-06-14T03:52:13.563Z,88.52
2016-06-14T03:53:13.566Z,88.13
2016-06-14T03:54:13.570Z,87.66
2016-06-14T03:55:13.604Z,88.71
2016-06-14T03:56:13.575Z,88.43
2016-06-14T03:57:13.563Z,88.23
2016-06-14T03:58:13.426Z,88.33
2016-06-14T03:59:13.569Z,88.33
2016-06-14T04:00:14.275Z,88.13
2016-06-14T04:01:13.575Z,88.13
2016-06-14T04:02:13.563Z,87.85
2016-06-14T04:03:13.581Z,87.66
2016-06-14T04:04:13.570Z,87.85
2016-06-14T04:05:13.603Z,88.43
2016-06-14T04:06:13.590Z,88.13
2016-06-14T04:07:13.593Z,88.62
2016-06-14T04:08:13.597Z,88.13
2016-06-14T04:09:13.600Z,88.52
2016-06-14T04:10:13.602Z,88.33
2016-06-14T04:11:13.591Z,88.62
2016-06-14T04:12:13.594Z,88.52
2016-06-14T04:13:13.597Z,88.52
2016-06-14T04:14:13.600Z,87.95
2016-06-14T04:15:13.774Z,87.85
2016-06-14T04:16:13.621Z,87.85
2016-06-14T04:17:13.609Z,87.95
2016-06-14T04:18:13.612Z,87.7
2016-06-14T04:19:13.600Z,87.61
2016-06-14T04:20:13.603Z,87.51
2016-06-14T04:21:13.621Z,87.32
2016-06-14T04:22:13.625Z,87.61
2016-06-14T04:23:13.627Z,87.66
2016-06-14T04:24:13.490Z,87.41
2016-06-14T04:25:13.634Z,87.41
2016-06-14T04:26:13.621Z,87.51
2016-06-14T04:27:13.655Z,87.32
2016-06-14T04:28:13.644Z,87.7
2016-06-14T04:29:13.474Z,86.94
2016-06-14T04:30:13.633Z,87.23
2016-06-14T04:31:13.621Z,86.84
2016-06-14T04:32:13.640Z,86.36
2016-06-14T04:33:13.658Z,86.27
2016-06-14T04:34:13.646Z,85.88
2016-06-14T04:35:13.649Z,86.08
2016-06-14T04:36:13.651Z,85.74
2016-06-14T04:37:13.638Z,84.97
2016-06-14T04:38:13.658Z,83.92
2016-06-14T04:39:13.661Z,82.81
2016-06-14T04:40:13.664Z,80.7
2016-06-14T04:41:13.667Z,79.88
2016-06-14T04:42:13.654Z,78.25
2016-06-14T04:43:13.673Z,76.65
2016-06-14T04:44:13.676Z,74.96
2016-06-14T04:45:13.538Z,73.52
2016-06-14T04:46:13.526Z,73.18
2016-06-14T04:47:13.670Z,70.52
2016-06-14T04:48:13.705Z,69.69
2016-06-14T04:49:13.707Z,69.12
2016-06-14T04:50:13.695Z,67.42
2016-06-14T04:51:13.698Z,67.22
2016-06-14T04:52:13.717Z,66.88
2016-06-14T04:53:13.704Z,68.09
2016-06-14T04:54:13.707Z,68.29
2016-06-14T04:55:13.726Z,68.73
2016-06-14T04:56:13.744Z,69.12
2016-06-14T04:57:13.733Z,68.92
2016-06-14T04:58:13.750Z,68.09
2016-06-14T04:59:13.738Z,66.65
2016-06-14T05:00:13.616Z,66.84
2016-06-14T05:01:13.776Z,66.84
2016-06-14T05:02:13.763Z,66.74
2016-06-14T05:03:13.766Z,66.65
2016-06-14T05:04:13.769Z,67.42
2016-06-14T05:05:13.788Z,68.38
2016-06-14T05:06:13.791Z,69.31
2016-06-14T05:07:13.794Z,69.21
2016-06-14T05:08:13.812Z,69.6
2016-06-14T05:09:13.815Z,70.17
2016-06-14T05:10:13.818Z,70.84
2016-06-14T05:11:13.822Z,71
2016-06-14T05:12:13.825Z,71.58
2016-06-14T05:13:13.828Z,72.25
2016-06-14T05:14:13.816Z,72.79
2016-06-14T05:15:13.850Z,73.08
2016-06-14T05:16:14.431Z,73.46
2016-06-14T05:17:13.872Z,73.62
2016-06-14T05:18:13.843Z,73.62
2016-06-14T05:19:13.846Z,73.72
2016-06-14T05:20:13.865Z,73.72
2016-06-14T05:21:13.868Z,73.72
2016-06-14T05:22:13.855Z,73.72
2016-06-14T05:23:13.874Z,73.85
2016-06-14T05:24:13.894Z,73.75
2016-06-14T05:25:13.881Z,72.69
2016-06-14T05:26:13.884Z,72.99
2016-06-14T05:27:13.886Z,73.27
2016-06-14T05:28:13.890Z,72.69
2016-06-14T05:29:13.893Z,72.79
2016-06-14T05:30:13.912Z,72.99
2016-06-14T05:31:13.929Z,72.79
2016-06-14T05:32:13.918Z,72.12
2016-06-14T05:33:13.952Z,72.31
2016-06-14T05:34:13.939Z,71.06
2016-06-14T05:35:13.927Z,71.06
2016-06-14T05:36:13.931Z,71.1
2016-06-14T05:37:13.776Z,71
2016-06-14T05:38:13.968Z,70.81
2016-06-14T05:39:13.939Z,70.72
2016-06-14T05:40:13.942Z,70.33
2016-06-14T05:41:13.961Z,70.23
2016-06-14T05:42:13.949Z,70.52
2016-06-14T05:43:13.983Z,70.14
2016-06-14T05:44:13.955Z,70.33
2016-06-14T05:45:13.973Z,69.75
2016-06-14T05:46:13.961Z,70.04
2016-06-14T05:47:13.995Z,69.95
2016-06-14T05:48:13.982Z,70.14
2016-06-14T05:49:14.002Z,70.43
2016-06-14T05:50:13.973Z,70.72
2016-06-14T05:51:14.008Z,71.06
2016-06-14T05:52:13.836Z,71.06
2016-06-14T05:53:14.011Z,70.62
2016-06-14T05:54:14.014Z,70.14
2016-06-14T05:55:14.016Z,68.83
2016-06-14T05:56:14.020Z,66.84
2016-06-14T05:57:14.039Z,64.86
2016-06-14T05:58:14.042Z,63.31
2016-06-14T05:59:14.029Z,62.09
2016-06-14T06:00:14.048Z,60.52
2016-06-14T06:01:14.035Z,59.07
2016-06-14T06:02:14.069Z,57.56
2016-06-14T06:03:14.072Z,56.81
2016-06-14T06:04:14.045Z,54.53
2016-06-14T06:05:14.079Z,53.59
2016-06-14T06:06:14.097Z,52.17
2016-06-14T06:07:14.085Z,51.32
2016-06-14T06:08:14.104Z,50.55
2016-06-14T06:09:14.107Z,49.9
2016-06-14T06:10:14.094Z,50.38
2016-06-14T06:11:14.113Z,49.22
2016-06-14T06:12:14.116Z,48.37
2016-06-14T06:13:14.134Z,48.47
2016-06-14T06:14:14.137Z,47.41
2016-06-14T06:15:14.140Z,46.84
2016-06-14T06:16:14.675Z,46.26
2016-06-14T06:17:14.147Z,45.42
2016-06-14T06:18:14.165Z,44.96
2016-06-14T06:19:14.185Z,45.42
2016-06-14T06:20:14.187Z,46.48
2016-06-14T06:21:14.205Z,46
2016-06-14T06:22:14.241Z,46.36
2016-06-14T06:23:14.228Z,45.98
2016-06-14T06:24:14.215Z,45.61
2016-06-14T06:25:14.218Z,43.79
2016-06-14T06:26:14.253Z,43.13
2016-06-14T06:27:14.240Z,43.23
2016-06-14T06:28:14.274Z,44.76
2016-06-14T06:29:14.294Z,46.09
2016-06-14T06:30:14.296Z,46.84
2016-06-14T06:31:14.628Z,47.21
2016-06-14T06:32:14.303Z,46.34
2016-06-14T06:33:14.321Z,45.78
2016-06-14T06:34:14.309Z,45.4
2016-06-14T06:35:14.327Z,45.71
2016-06-14T06:36:14.190Z,45.3
2016-06-14T06:37:14.365Z,45.49
2016-06-14T06:38:14.352Z,45.49
2016-06-14T06:39:14.386Z,47.24
2016-06-14T06:40:14.374Z,48.47
2016-06-14T06:41:14.392Z,48.74
2016-06-14T06:42:14.380Z,50.07
2016-06-14T06:43:14.399Z,50.07
2016-06-14T06:44:14.401Z,51.49
2016-06-14T06:45:14.436Z,51.49
2016-06-14T06:46:14.808Z,52.81
2016-06-14T06:47:14.492Z,52.98
2016-06-14T06:48:14.550Z,54.18
2016-06-14T06:49:14.592Z,56.27
2016-06-14T06:50:14.635Z,55.89
2016-06-14T06:51:14.692Z,56.44
2016-06-14T06:52:14.677Z,57.12
2016-06-14T06:53:14.773Z,57.47
2016-06-14T06:54:14.743Z,57.57
2016-06-14T06:55:14.791Z,57.37
2016-06-14T06:56:14.772Z,56.9
2016-06-14T06:57:14.795Z,56.41
2016-06-14T06:58:14.802Z,57.31
2016-06-14T06:59:14.811Z,57.09
2016-06-14T07:00:14.835Z,56.44
2016-06-14T07:01:14.825Z,56.44
2016-06-14T07:02:14.830Z,55.79
2016-06-14T07:03:14.867Z,55.6
2016-06-14T07:04:14.855Z,53.03
2016-06-14T07:05:14.877Z,50.57
2016-06-14T07:06:14.848Z,49.53
2016-06-14T07:07:14.868Z,49.07
2016-06-14T07:08:14.872Z,49.27
2016-06-14T07:09:14.876Z,48.79
2016-06-14T07:10:14.894Z,48.39
2016-06-14T07:11:14.913Z,47.91
2016-06-14T07:12:14.933Z,48.52
2016-06-14T07:13:14.764Z,47.91
2016-06-14T07:14:14.923Z,48.01
2016-06-14T07:15:14.943Z,49.46
2016-06-14T07:16:15.805Z,50.69
2016-06-14T07:17:14.949Z,51.05
2016-06-14T07:18:14.983Z,51.53
2016-06-14T07:19:14.971Z,51.92
2016-06-14T07:20:14.959Z,52.76
2016-06-14T07:21:14.961Z,53.31
2016-06-14T07:22:14.996Z,54.25
2016-06-14T07:23:15.015Z,55.51
2016-06-14T07:24:14.830Z,55.31
2016-06-14T07:25:15.005Z,55.67
2016-06-14T07:26:15.008Z,55.87
2016-06-14T07:27:15.011Z,56.99
2016-06-14T07:28:15.030Z,57.47
2016-06-14T07:29:15.017Z,57.76
2016-06-14T07:30:15.036Z,58.7
2016-06-14T07:31:15.320Z,58.31
2016-06-14T07:32:15.042Z,57.73
2016-06-14T07:33:15.077Z,56.96
2016-06-14T07:34:15.080Z,56.7
2016-06-14T07:35:15.066Z,55.48
2016-06-14T07:36:15.070Z,54.06
2016-06-14T07:37:15.073Z,52.52
2016-06-14T07:38:15.091Z,50.54
2016-06-14T07:39:15.094Z,48.64
2016-06-14T07:40:15.098Z,47.53
2016-06-14T07:41:15.101Z,45.62
2016-06-14T07:42:15.088Z,46.2
2016-06-14T07:43:15.123Z,46.97
2016-06-14T07:44:15.157Z,46
2016-06-14T07:45:15.113Z,43.2
2016-06-14T07:46:15.164Z,41.89
2016-06-14T07:47:15.197Z,40.84
2016-06-14T07:48:15.153Z,40.86
2016-06-14T07:49:15.173Z,41.83
2016-06-14T07:50:15.176Z,43.44
2016-06-14T07:51:15.162Z,44.21
2016-06-14T07:52:15.182Z,44.57
2016-06-14T07:53:15.201Z,45.74
2016-06-14T07:54:15.204Z,44.29
2016-06-14T07:55:15.191Z,44.6
2016-06-14T07:56:15.038Z,44.98
2016-06-14T07:57:15.072Z,44.87
2016-06-14T07:58:15.248Z,45.54
2016-06-14T07:59:15.234Z,46.51
2016-06-14T08:00:15.237Z,46.78
2016-06-14T08:01:15.257Z,47.36
2016-06-14T08:02:15.259Z,48.11
2016-06-14T08:03:15.278Z,48.49
2016-06-14T08:04:15.250Z,49.34
2016-06-14T08:05:15.284Z,50.21
2016-06-14T08:06:15.303Z,50.31
2016-06-14T08:07:15.305Z,50.96
2016-06-14T08:08:15.293Z,51.34
2016-06-14T08:09:15.296Z,51.53
2016-06-14T08:10:15.331Z,51.44
2016-06-14T08:11:15.334Z,52.01
2016-06-14T08:12:15.338Z,52.11
2016-06-14T08:13:15.340Z,52.67
2016-06-14T08:14:15.343Z,52.95
2016-06-14T08:15:15.361Z,52.76
2016-06-14T08:16:15.490Z,52.95
2016-06-14T08:17:15.367Z,52.45
2016-06-14T08:18:15.355Z,52.67
2016-06-14T08:19:15.374Z,53.31
2016-06-14T08:20:15.377Z,53.89
2016-06-14T08:21:15.396Z,53.89
2016-06-14T08:22:15.383Z,54.57
2016-06-14T08:23:15.386Z,54.28
2016-06-14T08:24:15.405Z,54.47
2016-06-14T08:25:15.425Z,54.66
2016-06-14T08:26:15.442Z,55.05
2016-06-14T08:27:15.430Z,56.95
2016-06-14T08:28:15.433Z,57.05
2016-06-14T08:29:15.437Z,57.05
2016-06-14T08:30:15.440Z,56.66
2016-06-14T08:31:15.582Z,56.76
2016-06-14T08:32:15.446Z,56.76
2016-06-14T08:33:15.480Z,57.14
2016-06-14T08:34:15.451Z,57.62
2016-06-14T08:35:15.486Z,57.72
2016-06-14T08:36:15.458Z,58.2
2016-06-14T08:37:15.476Z,58.11
2016-06-14T08:38:15.510Z,58.17
2016-06-14T08:39:15.482Z,57.5
2016-06-14T08:40:15.501Z,57.4
2016-06-14T08:41:15.504Z,58.27
2016-06-14T08:42:15.523Z,58.85
2016-06-14T08:43:15.542Z,58.85
2016-06-14T08:44:15.513Z,60.07
2016-06-14T08:45:15.517Z,61.13
2016-06-14T08:46:15.534Z,62
2016-06-14T08:47:15.523Z,64.02
2016-06-14T08:48:15.557Z,64.98
2016-06-14T08:49:15.544Z,64.73
2016-06-14T08:50:15.563Z,63.57
2016-06-14T08:51:15.567Z,61
2016-06-14T08:52:15.553Z,57.34
2016-06-14T08:53:15.603Z,55.54
2016-06-14T08:54:15.575Z,54.11
2016-06-14T08:55:15.563Z,51.95
2016-06-14T08:56:15.581Z,51.49
2016-06-14T08:57:15.616Z,50.81
2016-06-14T08:58:15.604Z,50.62
2016-06-14T08:59:15.606Z,53.52
2016-06-14T09:00:15.610Z,53.42
2016-06-14T09:01:15.644Z,53.13
2016-06-14T09:02:15.616Z,52.72
2016-06-14T09:03:15.619Z,52.43
2016-06-14T09:04:15.637Z,53.17
2016-06-14T09:05:15.640Z,54.21
2016-06-14T09:06:15.643Z,55.08
2016-06-14T09:07:15.631Z,56.11
2016-06-14T09:08:15.650Z,57.56
2016-06-14T09:09:15.653Z,58.59
2016-06-14T09:10:15.687Z,60.03
2016-06-14T09:11:15.674Z,60.61
2016-06-14T09:12:15.677Z,60.1
2016-06-14T09:13:15.681Z,60.68
2016-06-14T09:14:15.684Z,59.52
2016-06-14T09:15:15.687Z,59.43
2016-06-14T09:16:16.377Z,59.14
2016-06-14T09:17:15.724Z,59.04
2016-06-14T09:18:15.712Z,58.75
2016-06-14T09:19:15.730Z,58.49
2016-06-14T09:20:15.749Z,57.43
2016-06-14T09:21:15.737Z,57.07
2016-06-14T09:22:15.739Z,55.92
2016-06-14T09:23:15.728Z,55.82
2016-06-14T09:24:15.731Z,55.82
2016-06-14T09:25:15.749Z,55.15
2016-06-14T09:26:15.752Z,55.44
2016-06-14T09:27:15.771Z,54.96
2016-06-14T09:28:15.774Z,54.38
2016-06-14T09:29:15.792Z,55.18
2016-06-14T09:30:15.795Z,55.08
2016-06-14T09:31:15.783Z,54.98
2016-06-14T09:32:15.848Z,55.15
2016-06-14T09:33:15.804Z,55.08
2016-06-14T09:34:15.808Z,55.44
2016-06-14T09:35:15.810Z,55.44
2016-06-14T09:36:15.813Z,55.73
2016-06-14T09:37:15.833Z,55.82
2016-06-14T09:38:15.820Z,56.88
2016-06-14T09:39:15.839Z,56.11
2016-06-14T09:40:15.842Z,56.01
2016-06-14T09:41:15.828Z,55.92
2016-06-14T09:42:15.848Z,55.24
2016-06-14T09:43:15.867Z,55.24
2016-06-14T09:44:15.854Z,55.6
2016-06-14T09:45:15.874Z,55.99
2016-06-14T09:46:16.438Z,55.63
2016-06-14T09:47:15.880Z,55.44
2016-06-14T09:48:15.882Z,54.96
2016-06-14T09:49:15.885Z,54.6
2016-06-14T09:50:15.904Z,53.73
2016-06-14T09:51:15.906Z,52.79
2016-06-14T09:52:15.926Z,52.59
2016-06-14T09:53:15.928Z,51.44
2016-06-14T09:54:15.916Z,52.59
2016-06-14T09:55:15.935Z,53.85
2016-06-14T09:56:15.938Z,53.85
2016-06-14T09:57:15.941Z,54.24
2016-06-14T09:58:15.944Z,54.21
2016-06-14T09:59:15.947Z,54.21
2016-06-14T10:00:15.966Z,54.31
2016-06-14T10:01:15.969Z,54.4
2016-06-14T10:02:15.957Z,53.73
2016-06-14T10:03:15.976Z,54.31
2016-06-14T10:04:15.993Z,53.53
2016-06-14T10:05:15.982Z,53.83
2016-06-14T10:06:15.985Z,53.95
2016-06-14T10:07:16.034Z,52.98
2016-06-14T10:08:16.037Z,51.85
2016-06-14T10:09:16.025Z,51.15
2016-06-14T10:10:16.012Z,51.44
2016-06-14T10:11:16.031Z,52.01
2016-06-14T10:12:16.034Z,51.46
2016-06-14T10:13:16.037Z,50.89
2016-06-14T10:14:15.899Z,51.2
2016-06-14T10:15:16.043Z,51.2
2016-06-14T10:16:16.061Z,50.43
2016-06-14T10:17:15.939Z,51.59
2016-06-14T10:18:15.912Z,53.61
2016-06-14T10:19:16.103Z,53.45
2016-06-14T10:20:16.105Z,53.52
2016-06-14T10:21:16.077Z,53.52
2016-06-14T10:22:16.096Z,53.91
2016-06-14T10:23:16.115Z,52.84
2016-06-14T10:24:16.102Z,51.87
2016-06-14T10:25:16.136Z,50.33
2016-06-14T10:26:16.139Z,50.13
2016-06-14T10:27:16.158Z,50.43
2016-06-14T10:28:16.146Z,51.1
2016-06-14T10:29:16.148Z,51.2
2016-06-14T10:30:16.151Z,51.2
2016-06-14T10:31:16.154Z,51.01
2016-06-14T10:32:16.173Z,51.01
2016-06-14T10:33:16.177Z,50.07
2016-06-14T10:34:16.211Z,49.1
2016-06-14T10:35:16.198Z,49.77
2016-06-14T10:36:16.045Z,48.97
2016-06-14T10:37:16.205Z,51.39
2016-06-14T10:38:16.208Z,51.87
2016-06-14T10:39:16.211Z,51.68
2016-06-14T10:40:16.230Z,51.56
2016-06-14T10:41:16.232Z,51.49
2016-06-14T10:42:16.079Z,51.01
2016-06-14T10:43:16.144Z,50.91
2016-06-14T10:44:16.242Z,51.68
2016-06-14T10:45:16.276Z,50.91
2016-06-14T10:46:16.919Z,50.81
2016-06-14T10:47:17.517Z,50.91
2016-06-14T10:48:16.300Z,50.91
2016-06-14T10:49:16.287Z,51.2
2016-06-14T10:50:16.307Z,51.59
2016-06-14T10:51:16.294Z,51.2
2016-06-14T10:52:16.157Z,49.87
2016-06-14T10:53:16.316Z,49.39
2016-06-14T10:54:16.320Z,49.68
2016-06-14T10:55:16.338Z,50.65
2016-06-14T10:56:16.341Z,50.74
2016-06-14T10:57:16.345Z,50.45
2016-06-14T10:58:16.347Z,50.93
2016-06-14T10:59:16.365Z,51.03
2016-06-14T11:00:16.368Z,51.49
2016-06-14T11:01:16.404Z,52.07
2016-06-14T11:02:16.375Z,52.07
2016-06-14T11:03:16.378Z,53.01
2016-06-14T11:04:16.381Z,53.39
2016-06-14T11:05:16.400Z,53.97
2016-06-14T11:06:16.419Z,54.43
2016-06-14T11:07:16.422Z,55.3
2016-06-14T11:08:16.409Z,54.82
2016-06-14T11:09:16.428Z,55.78
2016-06-14T11:10:16.431Z,56.07
2016-06-14T11:11:16.277Z,57.59
2016-06-14T11:12:16.452Z,57.1
2016-06-14T11:13:16.455Z,57.68
2016-06-14T11:14:16.443Z,57.68
2016-06-14T11:15:16.478Z,58.58
2016-06-14T11:16:16.481Z,59.55
2016-06-14T11:17:16.795Z,59.03
2016-06-14T11:18:16.487Z,58.45
2016-06-14T11:19:16.505Z,58.36
2016-06-14T11:20:16.493Z,58.26
2016-06-14T11:21:16.497Z,58.45
2016-06-14T11:22:16.514Z,59.13
2016-06-14T11:23:16.518Z,59.03
2016-06-14T11:24:16.521Z,58.94
2016-06-14T11:25:16.555Z,59.23
2016-06-14T11:26:16.559Z,59.61
2016-06-14T11:27:16.546Z,59.52
2016-06-14T11:28:16.564Z,59.42
2016-06-14T11:29:16.552Z,58.17
2016-06-14T11:30:16.555Z,58.26
2016-06-14T11:31:16.574Z,59.52
2016-06-14T11:32:17.139Z,60
2016-06-14T11:33:16.580Z,60.13
2016-06-14T11:34:16.598Z,60.13
2016-06-14T11:35:16.586Z,59.9
2016-06-14T11:36:16.589Z,60
2016-06-14T11:37:16.608Z,60.58
2016-06-14T11:38:16.611Z,61.13
2016-06-14T11:39:16.614Z,62.09
2016-06-14T11:40:16.633Z,62.38
2016-06-14T11:41:16.651Z,62.18
2016-06-14T11:42:16.655Z,62.38
2016-06-14T11:43:16.642Z,63.15
2016-06-14T11:44:16.629Z,63.06
2016-06-14T11:45:16.648Z,62.76
2016-06-14T11:46:16.651Z,63.15
2016-06-14T11:47:18.388Z,63.15
2016-06-14T11:48:16.673Z,62.76
2016-06-14T11:49:16.519Z,62.57
2016-06-14T11:50:16.664Z,61.32
2016-06-14T11:51:16.667Z,60.8
2016-06-14T11:52:16.545Z,61.38
2016-06-14T11:53:16.689Z,62.35
2016-06-14T11:54:16.691Z,62.06
2016-06-14T11:55:16.695Z,63.12
2016-06-14T11:56:16.729Z,62.93
2016-06-14T11:57:16.700Z,62.83
2016-06-14T11:58:16.735Z,63.31
2016-06-14T11:59:16.722Z,63.02
2016-06-14T12:00:16.725Z,62.63
2016-06-14T12:01:16.775Z,61.29
2016-06-14T12:02:16.747Z,61.29
2016-06-14T12:03:16.751Z,62.7
2016-06-14T12:04:16.738Z,62.9
2016-06-14T12:05:16.757Z,63.54
2016-06-14T12:06:16.743Z,65.08
2016-06-14T12:07:16.762Z,65.66
2016-06-14T12:08:16.766Z,66.04
2016-06-14T12:09:16.769Z,67.29
2016-06-14T12:10:16.787Z,67.55
2016-06-14T12:11:16.775Z,68.41
2016-06-14T12:12:16.778Z,68.99
2016-06-14T12:13:16.796Z,69.38
2016-06-14T12:14:16.815Z,69.18
2016-06-14T12:15:16.803Z,69.95
2016-06-14T12:16:16.805Z,70.82
2016-06-14T12:17:17.622Z,72.45
2016-06-14T12:18:16.811Z,74.34
2016-06-14T12:19:16.815Z,75.69
2016-06-14T12:20:16.817Z,78
2016-06-14T12:21:16.837Z,78.58
2016-06-14T12:22:16.824Z,79.88
2016-06-14T12:23:16.843Z,77.19
2016-06-14T12:24:16.861Z,77.06
2016-06-14T12:25:16.833Z,79.46
2016-06-14T12:26:16.869Z,80.47
2016-06-14T12:27:16.855Z,80.28
2016-06-14T12:28:16.858Z,79.71
2016-06-14T12:29:16.861Z,82.07
2016-06-14T12:30:16.864Z,81.87
2016-06-14T12:31:16.867Z,83.51
2016-06-14T12:32:17.245Z,83.12
2016-06-14T12:33:16.890Z,81.97
2016-06-14T12:34:16.877Z,81.87
2016-06-14T12:35:16.880Z,83.6
2016-06-14T12:36:16.899Z,83.89
2016-06-14T12:37:16.886Z,83.41
2016-06-14T12:38:16.890Z,84.85
2016-06-14T12:39:16.892Z,84.27
2016-06-14T12:40:16.895Z,84.51
2016-06-14T12:41:16.899Z,83.07
2016-06-14T12:42:16.901Z,81.34
2016-06-14T12:43:16.904Z,83.74
2016-06-14T12:44:16.924Z,82.53
2016-06-14T12:45:16.911Z,81.57
2016-06-14T12:46:16.914Z,80.32
2016-06-14T12:47:16.948Z,79.98
2016-06-14T12:48:16.951Z,79.75
2016-06-14T12:49:16.924Z,79.98
2016-06-14T12:50:16.942Z,78.25
2016-06-14T12:51:16.961Z,78.06
2016-06-14T12:52:16.948Z,78.06
2016-06-14T12:53:16.966Z,79.02
2016-06-14T12:54:16.954Z,79.88
2016-06-14T12:55:16.958Z,81.04